createdAt,value
2017-01-10T00:00:52.059Z,1003.8
2017-01-10T00:02:02.412Z,1003.82
2017-01-10T00:03:13.155Z,1003.84
2017-01-10T00:04:23.894Z,1003.87
2017-01-10T00:05:34.625Z,1003.88
2017-01-10T00:06:45.356Z,1003.85
2017-01-10T00:07:55.708Z,1003.84
2017-01-10T00:09:06.448Z,1003.85
2017-01-10T00:10:16.801Z,1003.84
2017-01-10T00:11:27.152Z,1003.81
2017-01-10T00:12:37.900Z,1003.71
2017-01-10T00:13:48.639Z,1003.71
2017-01-10T00:14:59.383Z,1003.69
2017-01-10T00:16:10.119Z,1003.69
2017-01-10T00:17:20.477Z,1003.69
2017-01-10T00:18:30.816Z,1003.64
2017-01-10T00:19:41.552Z,1003.67
2017-01-10T00:20:51.906Z,1003.61
2017-01-10T00:22:02.682Z,1003.62
2017-01-10T00:23:13.028Z,1003.64
2017-01-10T00:24:23.380Z,1003.63
2017-01-10T00:25:34.121Z,1003.66
2017-01-10T00:26:44.068Z,1003.63
2017-01-10T00:27:54.804Z,1003.69
2017-01-10T00:29:05.148Z,1003.79
2017-01-10T00:30:15.499Z,1003.8
2017-01-10T00:31:26.229Z,1003.81
2017-01-10T00:32:36.183Z,1003.81
2017-01-10T00:33:46.520Z,1003.8
2017-01-10T00:34:57.247Z,1003.76
2017-01-10T00:36:07.997Z,1003.76
2017-01-10T00:37:18.741Z,1003.79
2017-01-10T00:38:29.080Z,1003.79
2017-01-10T00:39:39.823Z,1003.78
2017-01-10T00:40:50.163Z,1003.71
2017-01-10T00:42:00.894Z,1003.78
2017-01-10T00:43:11.643Z,1003.74
2017-01-10T00:44:21.590Z,1003.75
2017-01-10T00:45:32.353Z,1003.71
2017-01-10T00:46:42.695Z,1003.68
2017-01-10T00:47:53.430Z,1003.71
2017-01-10T00:49:04.159Z,1003.71
2017-01-10T00:50:14.506Z,1003.66
2017-01-10T00:51:25.270Z,1003.62
2017-01-10T00:52:35.602Z,1003.62
2017-01-10T00:53:45.977Z,1003.6
2017-01-10T00:54:56.722Z,1003.59
2017-01-10T00:56:07.057Z,1003.55
2017-01-10T00:57:17.399Z,1003.59
2017-01-10T00:58:28.125Z,1003.51
2017-01-10T00:59:38.874Z,1003.51
2017-01-10T01:00:49.617Z,1003.53
2017-01-10T01:02:00.350Z,1003.56
2017-01-10T01:03:11.093Z,1003.51
2017-01-10T01:04:21.834Z,1003.51
2017-01-10T01:05:32.173Z,1003.58
2017-01-10T01:06:42.924Z,1003.54
2017-01-10T01:07:53.696Z,1003.59
2017-01-10T01:09:04.429Z,1003.63
2017-01-10T01:10:14.805Z,1003.66
2017-01-10T01:11:25.545Z,1003.71
2017-01-10T01:12:35.893Z,1003.74
2017-01-10T01:13:46.229Z,1003.73
2017-01-10T01:14:56.991Z,1003.66
2017-01-10T01:16:07.755Z,1003.64
2017-01-10T01:17:18.490Z,1003.65
2017-01-10T01:18:29.218Z,1003.58
2017-01-10T01:19:39.965Z,1003.61
2017-01-10T01:20:50.713Z,1003.61
2017-01-10T01:22:01.449Z,1003.57
2017-01-10T01:23:12.187Z,1003.55
2017-01-10T01:24:22.533Z,1003.51
2017-01-10T01:25:33.283Z,1003.53
2017-01-10T01:26:43.629Z,1003.53
2017-01-10T01:27:54.364Z,1003.53
2017-01-10T01:29:05.110Z,1003.52
2017-01-10T01:30:15.833Z,1003.55
2017-01-10T01:31:26.580Z,1003.6
2017-01-10T01:32:37.314Z,1003.59
2017-01-10T01:33:48.038Z,1003.55
2017-01-10T01:34:57.976Z,1003.53
2017-01-10T01:36:08.713Z,1003.49
2017-01-10T01:37:19.050Z,1003.55
2017-01-10T01:38:29.796Z,1003.47
2017-01-10T01:39:40.524Z,1003.45
2017-01-10T01:40:51.259Z,1003.45
2017-01-10T01:42:01.990Z,1003.4
2017-01-10T01:43:11.932Z,1003.36
2017-01-10T01:44:22.271Z,1003.37
2017-01-10T01:45:33.045Z,1003.4
2017-01-10T01:46:44.031Z,1003.4
2017-01-10T01:47:54.787Z,1003.38
2017-01-10T01:49:04.730Z,1003.39
2017-01-10T01:50:14.666Z,1003.45
2017-01-10T01:51:25.407Z,1003.47
2017-01-10T01:52:36.143Z,1003.45
2017-01-10T01:53:46.888Z,1003.45
2017-01-10T01:54:57.634Z,1003.42
2017-01-10T01:56:08.412Z,1003.39
2017-01-10T01:57:19.158Z,1003.36
2017-01-10T01:58:29.900Z,1003.31
2017-01-10T01:59:40.241Z,1003.32
2017-01-10T02:00:50.578Z,1003.28
2017-01-10T02:02:01.405Z,1003.27
2017-01-10T02:03:12.149Z,1003.24
2017-01-10T02:04:22.883Z,1003.23
2017-01-10T02:05:33.619Z,1003.24
2017-01-10T02:06:44.363Z,1003.15
2017-01-10T02:07:55.103Z,1003.16
2017-01-10T02:09:05.844Z,1003.13
2017-01-10T02:10:16.189Z,1003.11
2017-01-10T02:11:26.933Z,1003.06
2017-01-10T02:12:37.280Z,1003.03
2017-01-10T02:13:48.019Z,1002.98
2017-01-10T02:14:58.758Z,1002.98
2017-01-10T02:16:09.490Z,1003.01
2017-01-10T02:17:20.227Z,1003.03
2017-01-10T02:18:30.564Z,1003.02
2017-01-10T02:19:40.896Z,1003.04
2017-01-10T02:20:51.638Z,1003.02
2017-01-10T02:22:02.364Z,1002.99
2017-01-10T02:23:12.704Z,1002.96
2017-01-10T02:24:23.449Z,1002.97
2017-01-10T02:25:34.201Z,1002.98
2017-01-10T02:26:44.935Z,1003
2017-01-10T02:27:55.277Z,1002.99
2017-01-10T02:29:05.632Z,1002.95
2017-01-10T02:30:16.368Z,1002.94
2017-01-10T02:31:27.108Z,1002.92
2017-01-10T02:32:37.836Z,1002.93
2017-01-10T02:33:48.567Z,1002.92
2017-01-10T02:34:59.308Z,1002.94
2017-01-10T02:36:10.049Z,1002.98
2017-01-10T02:37:20.377Z,1003.02
2017-01-10T02:38:30.719Z,1003.03
2017-01-10T02:39:41.456Z,1003.06
2017-01-10T02:40:51.798Z,1002.98
2017-01-10T02:42:02.533Z,1003.04
2017-01-10T02:43:12.871Z,1003.02
2017-01-10T02:44:23.603Z,1003.06
2017-01-10T02:45:34.366Z,1003.09
2017-01-10T02:46:45.107Z,1003.02
2017-01-10T02:47:55.834Z,1002.98
2017-01-10T02:49:06.599Z,1003.01
2017-01-10T02:50:17.558Z,1002.98
2017-01-10T02:51:28.308Z,1002.98
2017-01-10T02:52:38.652Z,1002.94
2017-01-10T02:53:48.991Z,1002.96
2017-01-10T02:54:59.731Z,1002.97
2017-01-10T02:56:10.466Z,1003.03
2017-01-10T02:57:20.812Z,1002.99
2017-01-10T02:58:31.552Z,1003
2017-01-10T02:59:42.298Z,1003
2017-01-10T03:00:52.633Z,1003.02
2017-01-10T03:02:02.967Z,1002.95
2017-01-10T03:33:44.337Z,1002.73
2017-01-10T03:34:55.082Z,1002.72
2017-01-10T03:36:05.808Z,1002.74
2017-01-10T03:37:16.529Z,1002.72
2017-01-10T03:38:26.871Z,1002.73
2017-01-10T03:39:37.197Z,1002.7
2017-01-10T03:40:47.937Z,1002.74
2017-01-10T03:41:58.667Z,1002.71
2017-01-10T03:43:09.422Z,1002.73
2017-01-10T03:44:19.757Z,1002.75
2017-01-10T03:45:30.098Z,1002.69
2017-01-10T03:46:40.818Z,1002.72
2017-01-10T03:47:51.560Z,1002.73
2017-01-10T03:49:02.318Z,1002.75
2017-01-10T03:50:13.063Z,1002.78
2017-01-10T03:51:23.406Z,1002.8
2017-01-10T03:52:34.167Z,1002.76
2017-01-10T03:53:44.899Z,1002.81
2017-01-10T03:54:55.635Z,1002.79
2017-01-10T03:56:06.364Z,1002.78
2017-01-10T03:57:17.095Z,1002.74
2017-01-10T03:58:27.841Z,1002.74
2017-01-10T03:59:38.623Z,1002.72
2017-01-10T04:02:44.494Z,1002.67
2017-01-10T04:03:55.225Z,1002.64
2017-01-10T04:05:05.967Z,1002.69
2017-01-10T04:06:16.707Z,1002.68
2017-01-10T04:07:27.045Z,1002.69
2017-01-10T04:08:37.381Z,1002.66
2017-01-10T04:09:47.720Z,1002.72
2017-01-10T04:10:58.458Z,1002.72
2017-01-10T04:12:08.795Z,1002.71
2017-01-10T04:13:19.532Z,1002.74
2017-01-10T04:14:29.874Z,1002.71
2017-01-10T04:15:40.610Z,1002.68
2017-01-10T04:16:51.375Z,1002.72
2017-01-10T04:18:01.313Z,1002.76
2017-01-10T04:19:12.046Z,1002.78
2017-01-10T04:20:22.771Z,1002.74
2017-01-10T04:21:33.102Z,1002.73
2017-01-10T04:22:43.048Z,1002.73
2017-01-10T04:23:53.777Z,1002.81
2017-01-10T04:25:04.513Z,1002.82
2017-01-10T04:26:14.469Z,1002.79
2017-01-10T04:27:25.207Z,1002.77
2017-01-10T04:28:35.947Z,1002.79
2017-01-10T04:29:46.675Z,1002.81
2017-01-10T04:30:57.412Z,1002.77
2017-01-10T04:32:08.145Z,1002.8
2017-01-10T04:33:18.869Z,1002.83
2017-01-10T04:34:29.603Z,1002.81
2017-01-10T04:35:40.310Z,1002.82
2017-01-10T04:36:51.025Z,1002.84
2017-01-10T04:38:01.756Z,1002.81
2017-01-10T04:39:11.735Z,1002.79
2017-01-10T04:40:22.471Z,1002.77
2017-01-10T04:41:33.193Z,1002.78
2017-01-10T04:42:43.960Z,1002.78
2017-01-10T04:43:54.694Z,1002.76
2017-01-10T04:45:05.444Z,1002.75
2017-01-10T04:46:16.168Z,1002.77
2017-01-10T04:47:26.510Z,1002.77
2017-01-10T04:48:36.446Z,1002.71
2017-01-10T04:49:47.170Z,1002.74
2017-01-10T04:50:57.516Z,1002.7
2017-01-10T04:52:07.882Z,1002.75
2017-01-10T04:53:18.625Z,1002.75
2017-01-10T04:54:28.572Z,1002.75
2017-01-10T04:55:39.309Z,1002.73
2017-01-10T04:56:49.686Z,1002.65
2017-01-10T04:58:00.413Z,1002.73
2017-01-10T04:59:11.139Z,1002.74
2017-01-10T05:00:21.474Z,1002.76
2017-01-10T05:01:31.812Z,1002.75
2017-01-10T05:02:42.158Z,1002.74
2017-01-10T05:03:52.906Z,1002.73
2017-01-10T05:05:03.657Z,1002.78
2017-01-10T05:06:14.001Z,1002.75
2017-01-10T05:07:24.751Z,1002.76
2017-01-10T05:08:35.093Z,1002.72
2017-01-10T05:09:45.434Z,1002.72
2017-01-10T05:10:56.172Z,1002.74
2017-01-10T05:12:06.516Z,1002.74
2017-01-10T05:13:16.853Z,1002.71
2017-01-10T05:14:27.196Z,1002.66
2017-01-10T05:15:37.925Z,1002.72
2017-01-10T05:16:48.676Z,1002.69
2017-01-10T05:17:59.407Z,1002.7
2017-01-10T05:19:09.746Z,1002.72
2017-01-10T05:20:20.492Z,1002.74
2017-01-10T05:21:30.820Z,1002.67
2017-01-10T05:22:41.591Z,1002.67
2017-01-10T05:23:52.340Z,1002.74
2017-01-10T05:25:03.081Z,1002.76
2017-01-10T05:26:13.839Z,1002.71
2017-01-10T05:27:24.573Z,1002.73
2017-01-10T05:28:35.303Z,1002.72
2017-01-10T05:29:46.052Z,1002.7
2017-01-10T05:30:56.799Z,1002.67
2017-01-10T05:32:07.563Z,1002.64
2017-01-10T05:33:18.301Z,1002.69
2017-01-10T05:34:29.042Z,1002.73
2017-01-10T05:35:39.394Z,1002.75
2017-01-10T05:36:50.131Z,1002.72
2017-01-10T05:38:00.878Z,1002.71
2017-01-10T05:39:11.617Z,1002.72
2017-01-10T05:40:22.348Z,1002.67
2017-01-10T05:41:33.079Z,1002.67
2017-01-10T05:42:43.415Z,1002.65
2017-01-10T05:43:53.763Z,1002.72
2017-01-10T05:45:04.125Z,1002.69
2017-01-10T05:46:14.466Z,1002.68
2017-01-10T05:47:25.212Z,1002.7
2017-01-10T05:48:35.550Z,1002.68
2017-01-10T05:49:46.300Z,1002.68
2017-01-10T05:50:57.028Z,1002.7
2017-01-10T05:52:07.790Z,1002.69
2017-01-10T05:53:18.538Z,1002.67
2017-01-10T05:54:29.270Z,1002.64
2017-01-10T05:55:40.005Z,1002.63
2017-01-10T05:56:50.333Z,1002.65
2017-01-10T05:58:01.064Z,1002.68
2017-01-10T05:59:11.401Z,1002.69
2017-01-10T06:00:22.175Z,1002.67
2017-01-10T06:01:32.916Z,1002.71
2017-01-10T06:02:43.660Z,1002.7
2017-01-10T06:03:54.006Z,1002.7
2017-01-10T06:05:04.744Z,1002.79
2017-01-10T06:06:15.474Z,1002.85
2017-01-10T06:07:25.421Z,1002.79
2017-01-10T06:08:36.158Z,1002.82
2017-01-10T06:09:46.499Z,1002.79
2017-01-10T06:10:57.237Z,1002.79
2017-01-10T06:12:07.968Z,1002.79
2017-01-10T06:13:18.326Z,1002.79
2017-01-10T06:14:28.683Z,1002.81
2017-01-10T06:15:39.423Z,1002.81
2017-01-10T06:16:50.166Z,1002.82
2017-01-10T06:18:00.530Z,1002.79
2017-01-10T06:19:11.259Z,1002.79
2017-01-10T06:20:21.601Z,1002.82
2017-01-10T06:21:32.340Z,1002.81
2017-01-10T06:22:43.085Z,1002.84
2017-01-10T06:23:53.808Z,1002.84
2017-01-10T06:25:04.553Z,1002.84
2017-01-10T06:26:15.290Z,1002.9
2017-01-10T06:27:26.035Z,1002.87
2017-01-10T06:28:36.379Z,1002.93
2017-01-10T06:29:46.728Z,1002.95
2017-01-10T06:30:57.457Z,1002.98
2017-01-10T06:32:07.794Z,1003.02
2017-01-10T06:33:18.527Z,1003.02
2017-01-10T06:34:28.867Z,1003.03
2017-01-10T06:35:39.595Z,1002.96
2017-01-10T06:36:50.330Z,1002.97
2017-01-10T06:38:00.273Z,1002.99
2017-01-10T06:39:11.009Z,1002.97
2017-01-10T06:40:21.742Z,1002.97
2017-01-10T06:41:32.479Z,1002.97
2017-01-10T06:42:43.220Z,1002.94
2017-01-10T06:43:53.955Z,1002.96
2017-01-10T06:45:04.701Z,1002.99
2017-01-10T06:46:15.488Z,1002.96
2017-01-10T06:47:26.221Z,1002.97
2017-01-10T06:48:36.568Z,1002.96
2017-01-10T06:49:47.321Z,1002.93
2017-01-10T06:50:58.062Z,1002.92
2017-01-10T06:52:08.788Z,1002.94
2017-01-10T06:53:19.520Z,1002.91
2017-01-10T06:54:30.245Z,1002.91
2017-01-10T06:55:40.970Z,1002.89
2017-01-10T06:56:51.706Z,1002.87
2017-01-10T06:58:02.058Z,1002.88
2017-01-10T06:59:12.403Z,1002.88
2017-01-10T07:00:23.166Z,1002.84
2017-01-10T07:01:33.526Z,1002.81
2017-01-10T07:02:43.873Z,1002.8
2017-01-10T07:03:54.606Z,1002.81
2017-01-10T07:05:04.938Z,1002.79
2017-01-10T07:06:15.283Z,1002.85
2017-01-10T07:07:26.012Z,1002.81
2017-01-10T07:08:36.753Z,1002.82
2017-01-10T07:09:47.088Z,1002.79
2017-01-10T07:10:57.822Z,1002.79
2017-01-10T07:12:08.558Z,1002.74
2017-01-10T07:13:19.295Z,1002.77
2017-01-10T07:14:30.051Z,1002.74
2017-01-10T07:15:41.020Z,1002.78
2017-01-10T07:16:51.360Z,1002.77
2017-01-10T07:18:02.103Z,1002.8
2017-01-10T07:19:13.067Z,1002.79
2017-01-10T07:20:23.805Z,1002.73
2017-01-10T07:21:34.548Z,1002.75
2017-01-10T07:22:44.892Z,1002.71
2017-01-10T07:23:55.258Z,1002.73
2017-01-10T07:25:05.992Z,1002.74
2017-01-10T07:26:16.739Z,1002.72
2017-01-10T07:27:27.467Z,1002.75
2017-01-10T07:28:38.193Z,1002.72
2017-01-10T07:29:48.964Z,1002.72
2017-01-10T07:30:59.309Z,1002.69
2017-01-10T07:32:09.647Z,1002.74
2017-01-10T07:33:20.376Z,1002.74
2017-01-10T07:34:31.114Z,1002.73
2017-01-10T07:35:41.463Z,1002.75
2017-01-10T07:36:52.241Z,1002.74
2017-01-10T07:38:02.962Z,1002.7
2017-01-10T07:39:13.712Z,1002.79
2017-01-10T07:40:24.049Z,1002.8
2017-01-10T07:41:34.413Z,1002.78
2017-01-10T07:42:44.356Z,1002.7
2017-01-10T07:43:55.099Z,1002.79
2017-01-10T07:45:05.833Z,1002.74
2017-01-10T07:46:16.570Z,1002.75
2017-01-10T07:47:27.310Z,1002.77
2017-01-10T07:48:38.051Z,1002.75
2017-01-10T07:49:48.387Z,1002.75
2017-01-10T07:50:58.755Z,1002.68
2017-01-10T07:52:09.516Z,1002.64
2017-01-10T07:53:20.254Z,1002.69
2017-01-10T07:54:31.004Z,1002.7
2017-01-10T07:55:41.345Z,1002.73
2017-01-10T07:56:51.690Z,1002.79
2017-01-10T07:58:02.421Z,1002.72
2017-01-10T07:59:13.166Z,1002.73
2017-01-10T08:00:23.519Z,1002.7
2017-01-10T08:01:33.460Z,1002.73
2017-01-10T08:02:43.802Z,1002.75
2017-01-10T08:03:54.140Z,1002.77
2017-01-10T08:05:04.895Z,1002.74
2017-01-10T08:06:15.639Z,1002.72
2017-01-10T08:07:26.374Z,1002.68
2017-01-10T08:08:37.131Z,1002.68
2017-01-10T08:09:47.097Z,1002.71
2017-01-10T08:10:57.443Z,1002.68
2017-01-10T08:12:08.207Z,1002.69
2017-01-10T08:13:18.950Z,1002.69
2017-01-10T08:14:29.692Z,1002.63
2017-01-10T08:15:40.433Z,1002.64
2017-01-10T08:16:50.770Z,1002.67
2017-01-10T08:18:01.143Z,1002.68
2017-01-10T08:19:11.480Z,1002.72
2017-01-10T08:20:22.222Z,1002.76
2017-01-10T08:21:32.964Z,1002.72
2017-01-10T08:22:43.303Z,1002.74
2017-01-10T08:23:53.628Z,1002.77
2017-01-10T08:25:03.568Z,1002.71
2017-01-10T08:26:14.545Z,1002.79
2017-01-10T08:27:25.285Z,1002.74
2017-01-10T08:28:35.622Z,1002.69
2017-01-10T08:29:46.369Z,1002.65
2017-01-10T08:30:56.725Z,1002.66
2017-01-10T08:32:07.062Z,1002.62
2017-01-10T08:33:17.408Z,1002.56
2017-01-10T08:34:28.143Z,1002.56
2017-01-10T08:35:38.506Z,1002.53
2017-01-10T08:36:48.044Z,1002.5
2017-01-10T08:37:58.391Z,1002.49
2017-01-10T08:39:09.128Z,1002.5
2017-01-10T08:40:19.873Z,1002.48
2017-01-10T08:41:30.602Z,1002.46
2017-01-10T08:42:41.345Z,1002.49
2017-01-10T08:43:51.696Z,1002.42
2017-01-10T08:45:02.460Z,1002.41
2017-01-10T08:46:12.791Z,1002.43
2017-01-10T08:47:23.520Z,1002.47
2017-01-10T08:48:33.872Z,1002.42
2017-01-10T08:49:44.213Z,1002.42
2017-01-10T08:50:54.558Z,1002.41
2017-01-10T08:52:04.901Z,1002.36
2017-01-10T08:53:15.237Z,1002.4
2017-01-10T08:54:25.964Z,1002.4
2017-01-10T08:55:36.341Z,1002.37
2017-01-10T08:56:47.150Z,1002.4
2017-01-10T08:57:57.904Z,1002.42
2017-01-10T08:59:07.860Z,1002.42
2017-01-10T09:00:18.598Z,1002.37
2017-01-10T09:01:29.347Z,1002.35
2017-01-10T09:02:40.092Z,1002.36
2017-01-10T09:03:50.833Z,1002.43
2017-01-10T09:05:01.184Z,1002.42
2017-01-10T09:06:11.917Z,1002.38
2017-01-10T09:07:22.272Z,1002.37
2017-01-10T09:08:33.013Z,1002.38
2017-01-10T09:09:43.743Z,1002.35
2017-01-10T09:10:54.473Z,1002.33
2017-01-10T09:12:05.206Z,1002.33
2017-01-10T09:13:15.554Z,1002.35
2017-01-10T09:14:26.280Z,1002.34
2017-01-10T09:15:37.009Z,1002.32
2017-01-10T09:16:47.756Z,1002.26
2017-01-10T09:17:58.096Z,1002.35
2017-01-10T09:19:08.050Z,1002.3
2017-01-10T09:20:18.786Z,1002.36
2017-01-10T09:21:29.132Z,1002.33
2017-01-10T09:22:39.480Z,1002.36
2017-01-10T09:23:50.243Z,1002.35
2017-01-10T09:25:00.978Z,1002.31
2017-01-10T09:26:11.729Z,1002.34
2017-01-10T09:27:22.072Z,1002.35
2017-01-10T09:28:32.830Z,1002.39
2017-01-10T09:29:43.570Z,1002.4
2017-01-10T09:30:53.923Z,1002.39
2017-01-10T09:32:04.286Z,1002.39
2017-01-10T09:33:15.021Z,1002.42
2017-01-10T09:34:25.778Z,1002.41
2017-01-10T09:35:36.526Z,1002.44
2017-01-10T09:36:47.257Z,1002.37
2017-01-10T09:37:57.609Z,1002.39
2017-01-10T09:39:08.349Z,1002.38
2017-01-10T09:40:19.096Z,1002.39
2017-01-10T09:41:29.437Z,1002.36
2017-01-10T09:42:39.781Z,1002.29
2017-01-10T09:43:50.526Z,1002.31
2017-01-10T09:45:01.304Z,1002.19
2017-01-10T09:46:11.662Z,1002.24
2017-01-10T09:47:22.391Z,1002.24
2017-01-10T09:48:33.123Z,1002.2
2017-01-10T09:49:43.869Z,1002.16
2017-01-10T09:50:54.617Z,1002.19
2017-01-10T09:52:04.968Z,1002.12
2017-01-10T09:53:15.710Z,1002.06
2017-01-10T09:54:26.461Z,1002.08
2017-01-10T09:55:36.799Z,1002.02
2017-01-10T09:56:47.146Z,1002.02
2017-01-10T09:57:57.872Z,1001.99
2017-01-10T09:59:08.613Z,1001.98
2017-01-10T10:00:19.376Z,1001.95
2017-01-10T10:01:30.116Z,1001.97
2017-01-10T10:02:40.086Z,1001.96
2017-01-10T10:03:50.030Z,1001.91
2017-01-10T10:05:00.780Z,1001.91
2017-01-10T10:06:10.727Z,1001.87
2017-01-10T10:07:21.450Z,1001.87
2017-01-10T10:08:31.770Z,1001.89
2017-01-10T10:09:42.516Z,1001.86
2017-01-10T10:10:52.863Z,1001.89
2017-01-10T10:12:03.209Z,1001.85
2017-01-10T10:13:13.946Z,1001.89
2017-01-10T10:14:24.697Z,1001.85
2017-01-10T10:15:35.454Z,1001.88
2017-01-10T10:16:46.524Z,1001.83
2017-01-10T10:17:59.533Z,1001.82
2017-01-10T10:19:14.231Z,1001.81
2017-01-10T10:20:25.196Z,1001.8
2017-01-10T10:21:35.548Z,1001.85
2017-01-10T10:22:45.912Z,1001.78
2017-01-10T10:23:56.799Z,1001.8
2017-01-10T10:25:07.776Z,1001.79
2017-01-10T10:26:18.508Z,1001.76
2017-01-10T10:27:28.880Z,1001.73
2017-01-10T10:28:39.226Z,1001.75
2017-01-10T10:29:50.009Z,1001.72
2017-01-10T10:31:00.889Z,1001.73
2017-01-10T10:32:11.663Z,1001.76
2017-01-10T10:33:22.065Z,1001.77
2017-01-10T10:34:32.820Z,1001.79
2017-01-10T10:35:43.585Z,1001.73
2017-01-10T10:36:53.598Z,1001.79
2017-01-10T10:38:03.648Z,1001.74
2017-01-10T10:39:14.086Z,1001.75
2017-01-10T10:40:24.959Z,1001.74
2017-01-10T10:41:35.759Z,1001.74
2017-01-10T10:42:47.054Z,1001.75
2017-01-10T10:43:58.096Z,1001.75
2017-01-10T10:45:08.491Z,1001.65
2017-01-10T10:46:19.342Z,1001.63
2017-01-10T10:47:30.117Z,1001.66
2017-01-10T10:48:40.108Z,1001.59
2017-01-10T10:49:50.472Z,1001.59
2017-01-10T10:51:01.253Z,1001.54
2017-01-10T10:52:12.069Z,1001.52
2017-01-10T10:53:22.403Z,1001.54
2017-01-10T10:54:33.192Z,1001.52
2017-01-10T10:55:44.259Z,1001.46
2017-01-10T10:56:55.004Z,1001.45
2017-01-10T10:58:05.052Z,1001.47
2017-01-10T10:59:15.805Z,1001.41
2017-01-10T11:00:26.540Z,1001.4
2017-01-10T11:01:37.395Z,1001.43
2017-01-10T11:02:48.148Z,1001.41
2017-01-10T11:03:59.099Z,1001.4
2017-01-10T11:05:09.450Z,1001.35
2017-01-10T11:06:19.388Z,1001.36
2017-01-10T11:07:30.178Z,1001.3
2017-01-10T11:08:40.959Z,1001.24
2017-01-10T11:09:51.697Z,1001.29
2017-01-10T11:11:01.644Z,1001.31
2017-01-10T11:12:12.405Z,1001.25
2017-01-10T11:13:23.176Z,1001.19
2017-01-10T11:14:33.912Z,1001.23
2017-01-10T11:15:44.683Z,1001.2
2017-01-10T11:16:55.424Z,1001.16
2017-01-10T11:18:05.779Z,1001.18
2017-01-10T11:19:16.557Z,1001.1
2017-01-10T11:20:27.296Z,1001.16
2017-01-10T11:21:38.046Z,1001.13
2017-01-10T11:22:48.389Z,1001.05
2017-01-10T11:23:59.130Z,1001.09
2017-01-10T11:25:09.866Z,1001.11
2017-01-10T11:26:20.618Z,1001.04
2017-01-10T11:27:31.354Z,1001.04
2017-01-10T11:28:41.722Z,1001.04
2017-01-10T11:29:52.466Z,1001.04
2017-01-10T11:31:02.422Z,1001.03
2017-01-10T11:32:13.237Z,1001.03
2017-01-10T11:33:23.969Z,1001.01
2017-01-10T11:34:34.707Z,1001.02
2017-01-10T11:35:45.443Z,1001.05
2017-01-10T11:36:55.793Z,1001.01
2017-01-10T11:38:06.556Z,1000.96
2017-01-10T11:39:17.292Z,1000.96
2017-01-10T11:40:28.035Z,1000.91
2017-01-10T11:41:38.772Z,1000.91
2017-01-10T11:42:48.717Z,1000.86
2017-01-10T11:43:59.468Z,1000.83
2017-01-10T11:45:09.813Z,1000.94
2017-01-10T11:46:20.153Z,1000.86
2017-01-10T11:47:30.899Z,1000.92
2017-01-10T11:48:41.256Z,1000.88
2017-01-10T11:49:51.999Z,1000.85
2017-01-10T11:51:02.356Z,1000.86
2017-01-10T11:52:13.131Z,1000.84
2017-01-10T11:53:23.478Z,1000.81
2017-01-10T11:54:33.834Z,1000.8
2017-01-10T11:55:43.818Z,1000.84
2017-01-10T11:56:54.563Z,1000.79
2017-01-10T11:58:05.311Z,1000.79
2017-01-10T11:59:15.260Z,1000.76
2017-01-10T12:00:25.605Z,1000.75
2017-01-10T12:01:36.341Z,1000.72
2017-01-10T12:02:47.101Z,1000.75
2017-01-10T12:03:57.854Z,1000.7
2017-01-10T12:05:08.591Z,1000.69
2017-01-10T12:06:18.949Z,1000.71
2017-01-10T12:07:29.713Z,1000.74
2017-01-10T12:08:40.456Z,1000.79
2017-01-10T12:09:51.198Z,1000.76
2017-01-10T12:11:01.554Z,1000.76
2017-01-10T12:12:11.926Z,1000.69
2017-01-10T12:13:21.945Z,1000.73
2017-01-10T12:14:32.289Z,1000.71
2017-01-10T12:15:43.027Z,1000.75
2017-01-10T12:16:52.979Z,1000.68
2017-01-10T12:18:03.335Z,1000.64
2017-01-10T12:19:14.091Z,1000.65
2017-01-10T12:20:24.859Z,1000.61
2017-01-10T12:21:35.611Z,1000.63
2017-01-10T12:22:46.359Z,1000.6
2017-01-10T12:23:56.733Z,1000.55
2017-01-10T12:25:07.498Z,1000.53
2017-01-10T12:26:17.863Z,1000.56
2017-01-10T12:27:28.599Z,1000.6
2017-01-10T12:28:39.337Z,1000.66
2017-01-10T12:29:49.702Z,1000.62
2017-01-10T12:31:00.455Z,1000.58
2017-01-10T12:32:11.206Z,1000.52
2017-01-10T12:33:21.940Z,1000.49
2017-01-10T12:34:32.685Z,1000.47
2017-01-10T12:35:43.442Z,1000.46
2017-01-10T12:36:54.418Z,1000.45
2017-01-10T12:38:05.198Z,1000.49
2017-01-10T12:39:15.576Z,1000.45
2017-01-10T12:40:25.926Z,1000.45
2017-01-10T12:41:36.900Z,1000.51
2017-01-10T12:42:47.652Z,1000.45
2017-01-10T12:43:58.017Z,1000.45
2017-01-10T12:45:08.751Z,1000.42
2017-01-10T12:46:19.497Z,1000.43
2017-01-10T12:47:30.240Z,1000.42
2017-01-10T12:48:40.993Z,1000.42
2017-01-10T12:49:51.357Z,1000.36
2017-01-10T12:51:02.111Z,1000.37
2017-01-10T12:52:12.475Z,1000.35
2017-01-10T12:53:23.232Z,1000.38
2017-01-10T12:54:34.010Z,1000.38
2017-01-10T12:55:44.804Z,1000.35
2017-01-10T12:56:55.560Z,1000.32
2017-01-10T12:58:06.376Z,1000.34
2017-01-10T12:59:17.124Z,1000.25
2017-01-10T13:00:27.501Z,1000.26
2017-01-10T13:01:38.274Z,1000.28
2017-01-10T13:02:49.059Z,1000.37
2017-01-10T13:03:59.817Z,1000.28
2017-01-10T13:05:10.188Z,1000.26
2017-01-10T13:06:20.546Z,1000.29
2017-01-10T13:07:30.916Z,1000.26
2017-01-10T13:08:41.263Z,1000.25
2017-01-10T13:09:52.004Z,1000.28
2017-01-10T13:11:02.770Z,1000.25
2017-01-10T13:12:13.511Z,1000.21
2017-01-10T13:13:23.853Z,1000.23
2017-01-10T13:14:34.218Z,1000.25
2017-01-10T13:15:44.574Z,1000.25
2017-01-10T13:16:55.307Z,1000.27
2017-01-10T13:18:05.650Z,1000.25
2017-01-10T13:19:16.379Z,1000.24
2017-01-10T13:20:26.754Z,1000.18
2017-01-10T13:21:37.515Z,1000.16
2017-01-10T13:22:48.270Z,1000.26
2017-01-10T13:23:58.221Z,1000.33
2017-01-10T13:25:08.962Z,1000.27
2017-01-10T13:26:19.350Z,1000.3
2017-01-10T13:27:29.698Z,1000.31
2017-01-10T13:28:40.442Z,1000.21
2017-01-10T13:29:51.200Z,1000.27
2017-01-10T13:31:01.935Z,1000.25
2017-01-10T13:32:12.689Z,1000.25
2017-01-10T13:33:23.041Z,1000.2
2017-01-10T13:34:33.817Z,1000.17
2017-01-10T13:35:44.568Z,1000.15
2017-01-10T13:36:55.310Z,1000.08
2017-01-10T13:38:05.658Z,1000.12
2017-01-10T13:39:16.428Z,1000.12
2017-01-10T13:40:26.777Z,1000.05
2017-01-10T13:41:37.126Z,1000.13
2017-01-10T13:42:47.866Z,1000.07
2017-01-10T13:43:58.615Z,1000.09
2017-01-10T13:45:09.357Z,1000.06
2017-01-10T13:46:19.702Z,1000.06
2017-01-10T13:47:30.071Z,1000.03
2017-01-10T13:48:40.420Z,1000.09
2017-01-10T13:49:51.145Z,1000.03
2017-01-10T13:51:01.920Z,1000.05
2017-01-10T13:52:12.289Z,1000.05
2017-01-10T13:53:22.656Z,999.97
2017-01-10T13:54:33.001Z,1000.02
2017-01-10T13:55:43.743Z,999.99
2017-01-10T13:56:54.471Z,1000.06
2017-01-10T13:58:05.224Z,1000.04
2017-01-10T13:59:15.557Z,1000.03
2017-01-10T14:00:25.900Z,1000.09
2017-01-10T14:01:36.238Z,999.98
2017-01-10T14:02:46.564Z,1000
2017-01-10T14:03:57.300Z,1000.01
2017-01-10T14:05:07.668Z,1000.03
2017-01-10T14:06:18.008Z,1000.05
2017-01-10T14:07:28.755Z,1000.07
2017-01-10T14:08:39.100Z,1000.11
2017-01-10T14:09:49.455Z,1000.05
2017-01-10T14:11:00.215Z,1000.01
2017-01-10T14:12:10.567Z,999.95
2017-01-10T14:13:21.329Z,999.89
2017-01-10T14:14:32.087Z,999.9
2017-01-10T14:15:42.436Z,999.97
2017-01-10T14:16:53.177Z,999.92
2017-01-10T14:18:03.930Z,999.93
2017-01-10T14:19:14.672Z,999.95
2017-01-10T14:20:25.254Z,1000
2017-01-10T14:21:36.011Z,999.99
2017-01-10T14:22:46.742Z,999.94
2017-01-10T14:23:57.508Z,1000.08
2017-01-10T14:25:08.280Z,1000.04
2017-01-10T14:26:18.640Z,1000.04
2017-01-10T14:27:28.985Z,1000.01
2017-01-10T14:28:39.331Z,1000.04
2017-01-10T14:29:49.666Z,1000.03
2017-01-10T14:31:00.398Z,1000.04
2017-01-10T14:32:10.745Z,1000.09
2017-01-10T14:33:20.701Z,1000.07
2017-01-10T14:34:31.450Z,1000.06
2017-01-10T14:35:41.787Z,1000.06
2017-01-10T14:36:52.545Z,1000.08
2017-01-10T14:38:03.275Z,1000.09
2017-01-10T14:39:14.019Z,1000.06
2017-01-10T14:40:24.764Z,1000.02
2017-01-10T14:41:35.113Z,1000
2017-01-10T14:42:45.854Z,1000.04
2017-01-10T14:43:56.185Z,1000
2017-01-10T14:45:06.540Z,1000.05
2017-01-10T14:46:17.291Z,1000.03
2017-01-10T14:47:28.048Z,1000.08
2017-01-10T14:48:38.805Z,1000.13
2017-01-10T14:49:49.537Z,1000.13